sensor_id;sensor_type;location;lat;lon;timestamp;P1;durP1;ratioP1;P2;durP2;ratioP2
60030;SDS011;45901;47.600;9.890;2022-12-10T00:05:05;13.27;;;8.90;;
60030;SDS011;45901;47.600;9.890;2022-12-10T00:07:32;15.43;;;9.57;;
60030;SDS011;45901;47.600;9.890;2022-12-10T00:10:00;35.93;;;11.73;;
60030;SDS011;45901;47.600;9.890;2022-12-10T00:12:27;13.73;;;9.50;;
60030;SDS011;45901;47.600;9.890;2022-12-10T00:14:55;16.60;;;9.43;;
60030;SDS011;45901;47.600;9.890;2022-12-10T00:17:22;12.80;;;8.47;;
60030;SDS011;45901;47.600;9.890;2022-12-10T00:19:52;11.93;;;8.17;;
60030;SDS011;45901;47.600;9.890;2022-12-10T00:22:21;23.47;;;8.27;;
60030;SDS011;45901;47.600;9.890;2022-12-10T00:24:49;12.67;;;8.23;;
60030;SDS011;45901;47.600;9.890;2022-12-10T00:27:16;12.03;;;7.80;;
60030;SDS011;45901;47.600;9.890;2022-12-10T00:29:44;13.13;;;8.60;;
60030;SDS011;45901;47.600;9.890;2022-12-10T00:32:11;13.67;;;8.47;;
60030;SDS011;45901;47.600;9.890;2022-12-10T00:34:38;13.83;;;8.70;;
60030;SDS011;45901;47.600;9.890;2022-12-10T00:37:07;13.40;;;8.33;;
60030;SDS011;45901;47.600;9.890;2022-12-10T00:39:34;11.07;;;7.37;;
60030;SDS011;45901;47.600;9.890;2022-12-10T00:42:02;11.90;;;7.80;;
60030;SDS011;45901;47.600;9.890;2022-12-10T00:44:30;11.97;;;8.10;;
60030;SDS011;45901;47.600;9.890;2022-12-10T00:46:58;11.57;;;8.03;;
60030;SDS011;45901;47.600;9.890;2022-12-10T00:49:26;13.23;;;8.20;;
60030;SDS011;45901;47.600;9.890;2022-12-10T00:51:53;13.67;;;8.53;;
60030;SDS011;45901;47.600;9.890;2022-12-10T00:54:21;10.13;;;6.87;;
60030;SDS011;45901;47.600;9.890;2022-12-10T00:56:49;11.87;;;7.73;;
60030;SDS011;45901;47.600;9.890;2022-12-10T00:59:16;12.57;;;7.87;;
60030;SDS011;45901;47.600;9.890;2022-12-10T01:01:44;12.17;;;8.17;;
60030;SDS011;45901;47.600;9.890;2022-12-10T01:04:13;11.67;;;7.70;;
60030;SDS011;45901;47.600;9.890;2022-12-10T01:06:43;11.07;;;8.00;;
60030;SDS011;45901;47.600;9.890;2022-12-10T01:09:14;12.97;;;8.23;;
60030;SDS011;45901;47.600;9.890;2022-12-10T01:11:46;13.47;;;8.13;;
60030;SDS011;45901;47.600;9.890;2022-12-10T01:14:17;10.27;;;7.17;;
60030;SDS011;45901;47.600;9.890;2022-12-10T01:16:46;12.23;;;7.83;;
60030;SDS011;45901;47.600;9.890;2022-12-10T01:19:13;11.60;;;8.00;;
60030;SDS011;45901;47.600;9.890;2022-12-10T01:21:40;11.10;;;7.30;;
60030;SDS011;45901;47.600;9.890;2022-12-10T01:24:08;11.20;;;8.13;;
60030;SDS011;45901;47.600;9.890;2022-12-10T01:26:36;12.83;;;8.43;;
60030;SDS011;45901;47.600;9.890;2022-12-10T01:29:05;11.70;;;8.37;;
60030;SDS011;45901;47.600;9.890;2022-12-10T01:31:33;11.47;;;8.10;;
60030;SDS011;45901;47.600;9.890;2022-12-10T01:34:02;12.20;;;8.17;;
60030;SDS011;45901;47.600;9.890;2022-12-10T01:36:33;11.80;;;8.13;;
60030;SDS011;45901;47.600;9.890;2022-12-10T01:39:03;11.57;;;8.07;;
60030;SDS011;45901;47.600;9.890;2022-12-10T01:41:34;13.37;;;8.47;;
60030;SDS011;45901;47.600;9.890;2022-12-10T01:44:55;10.23;;;7.57;;
60030;SDS011;45901;47.600;9.890;2022-12-10T01:47:29;15.90;;;8.03;;
60030;SDS011;45901;47.600;9.890;2022-12-10T01:49:57;12.77;;;8.23;;
60030;SDS011;45901;47.600;9.890;2022-12-10T01:52:26;13.90;;;8.63;;
60030;SDS011;45901;47.600;9.890;2022-12-10T01:54:54;13.63;;;9.30;;
60030;SDS011;45901;47.600;9.890;2022-12-10T01:57:21;14.40;;;9.27;;
60030;SDS011;45901;47.600;9.890;2022-12-10T01:59:53;13.93;;;9.13;;
60030;SDS011;45901;47.600;9.890;2022-12-10T02:02:28;13.97;;;9.23;;
60030;SDS011;45901;47.600;9.890;2022-12-10T02:05:08;12.60;;;8.67;;
60030;SDS011;45901;47.600;9.890;2022-12-10T02:07:54;13.27;;;8.67;;
60030;SDS011;45901;47.600;9.890;2022-12-10T02:10:35;12.20;;;8.67;;
60030;SDS011;45901;47.600;9.890;2022-12-10T02:13:12;13.17;;;8.80;;
60030;SDS011;45901;47.600;9.890;2022-12-10T02:15:50;12.57;;;8.57;;
60030;SDS011;45901;47.600;9.890;2022-12-10T02:18:24;13.20;;;8.47;;
60030;SDS011;45901;47.600;9.890;2022-12-10T02:20:55;11.70;;;8.23;;
60030;SDS011;45901;47.600;9.890;2022-12-10T02:23:26;9.53;;;7.20;;
60030;SDS011;45901;47.600;9.890;2022-12-10T02:25:59;10.87;;;7.63;;
60030;SDS011;45901;47.600;9.890;2022-12-10T02:28:33;12.43;;;7.63;;
60030;SDS011;45901;47.600;9.890;2022-12-10T02:31:11;10.63;;;7.70;;
60030;SDS011;45901;47.600;9.890;2022-12-10T02:33:45;10.23;;;7.67;;
60030;SDS011;45901;47.600;9.890;2022-12-10T02:36:17;10.37;;;7.50;;
60030;SDS011;45901;47.600;9.890;2022-12-10T02:38:47;10.40;;;6.87;;
60030;SDS011;45901;47.600;9.890;2022-12-10T02:41:20;9.77;;;7.80;;
60030;SDS011;45901;47.600;9.890;2022-12-10T02:43:52;10.70;;;7.53;;
60030;SDS011;45901;47.600;9.890;2022-12-10T02:46:24;11.80;;;8.53;;
60030;SDS011;45901;47.600;9.890;2022-12-10T02:48:54;12.77;;;8.37;;
60030;SDS011;45901;47.600;9.890;2022-12-10T02:51:24;12.17;;;8.57;;
60030;SDS011;45901;47.600;9.890;2022-12-10T02:53:58;13.13;;;8.33;;
60030;SDS011;45901;47.600;9.890;2022-12-10T02:56:27;13.43;;;9.53;;
60030;SDS011;45901;47.600;9.890;2022-12-10T02:59:03;14.13;;;9.33;;
60030;SDS011;45901;47.600;9.890;2022-12-10T03:01:44;11.57;;;8.13;;
60030;SDS011;45901;47.600;9.890;2022-12-10T03:04:22;12.20;;;8.90;;
60030;SDS011;45901;47.600;9.890;2022-12-10T03:06:57;13.73;;;8.63;;
60030;SDS011;45901;47.600;9.890;2022-12-10T03:09:29;12.70;;;9.23;;
60030;SDS011;45901;47.600;9.890;2022-12-10T03:12:06;12.00;;;8.47;;
60030;SDS011;45901;47.600;9.890;2022-12-10T03:14:43;11.80;;;8.33;;
60030;SDS011;45901;47.600;9.890;2022-12-10T03:17:13;10.53;;;7.50;;
60030;SDS011;45901;47.600;9.890;2022-12-10T03:19:43;12.43;;;8.30;;
60030;SDS011;45901;47.600;9.890;2022-12-10T03:22:15;16.27;;;8.33;;
60030;SDS011;45901;47.600;9.890;2022-12-10T03:24:46;13.00;;;9.10;;
60030;SDS011;45901;47.600;9.890;2022-12-10T03:27:15;13.90;;;9.53;;
60030;SDS011;45901;47.600;9.890;2022-12-10T03:29:45;14.20;;;9.90;;
60030;SDS011;45901;47.600;9.890;2022-12-10T03:32:18;14.20;;;9.47;;
60030;SDS011;45901;47.600;9.890;2022-12-10T03:34:47;14.77;;;9.70;;
60030;SDS011;45901;47.600;9.890;2022-12-10T03:37:17;13.47;;;9.40;;
60030;SDS011;45901;47.600;9.890;2022-12-10T03:39:46;16.60;;;9.83;;
60030;SDS011;45901;47.600;9.890;2022-12-10T03:42:13;13.83;;;9.90;;
60030;SDS011;45901;47.600;9.890;2022-12-10T03:44:41;14.80;;;9.97;;
60030;SDS011;45901;47.600;9.890;2022-12-10T03:47:09;13.13;;;9.33;;
60030;SDS011;45901;47.600;9.890;2022-12-10T03:49:42;14.20;;;9.37;;
60030;SDS011;45901;47.600;9.890;2022-12-10T03:52:09;12.73;;;8.97;;
60030;SDS011;45901;47.600;9.890;2022-12-10T03:54:37;15.23;;;9.67;;
60030;SDS011;45901;47.600;9.890;2022-12-10T03:57:05;16.40;;;10.80;;
60030;SDS011;45901;47.600;9.890;2022-12-10T03:59:32;16.33;;;10.47;;
60030;SDS011;45901;47.600;9.890;2022-12-10T04:02:00;16.27;;;11.03;;
60030;SDS011;45901;47.600;9.890;2022-12-10T04:04:33;21.13;;;11.50;;
60030;SDS011;45901;47.600;9.890;2022-12-10T04:07:02;16.50;;;10.73;;
60030;SDS011;45901;47.600;9.890;2022-12-10T04:09:30;17.57;;;11.13;;
60030;SDS011;45901;47.600;9.890;2022-12-10T04:11:57;16.77;;;11.40;;
60030;SDS011;45901;47.600;9.890;2022-12-10T04:14:25;16.97;;;11.13;;
60030;SDS011;45901;47.600;9.890;2022-12-10T04:17:11;17.73;;;12.03;;
60030;SDS011;45901;47.600;9.890;2022-12-10T04:19:39;19.90;;;12.93;;
60030;SDS011;45901;47.600;9.890;2022-12-10T04:22:09;20.43;;;12.00;;
60030;SDS011;45901;47.600;9.890;2022-12-10T04:24:54;18.17;;;11.93;;
60030;SDS011;45901;47.600;9.890;2022-12-10T04:27:47;19.60;;;12.73;;
60030;SDS011;45901;47.600;9.890;2022-12-10T04:30:15;19.83;;;12.90;;
60030;SDS011;45901;47.600;9.890;2022-12-10T04:32:42;19.77;;;12.60;;
60030;SDS011;45901;47.600;9.890;2022-12-10T04:35:09;23.60;;;15.00;;
60030;SDS011;45901;47.600;9.890;2022-12-10T04:37:38;24.87;;;15.33;;
60030;SDS011;45901;47.600;9.890;2022-12-10T04:40:06;21.40;;;13.50;;
60030;SDS011;45901;47.600;9.890;2022-12-10T04:42:34;24.80;;;14.57;;
60030;SDS011;45901;47.600;9.890;2022-12-10T04:45:02;21.10;;;13.13;;
60030;SDS011;45901;47.600;9.890;2022-12-10T04:47:30;20.37;;;12.97;;
60030;SDS011;45901;47.600;9.890;2022-12-10T04:49:57;22.63;;;12.90;;
60030;SDS011;45901;47.600;9.890;2022-12-10T04:52:24;21.83;;;13.17;;
60030;SDS011;45901;47.600;9.890;2022-12-10T04:54:53;20.80;;;12.63;;
60030;SDS011;45901;47.600;9.890;2022-12-10T04:57:20;19.83;;;13.17;;
60030;SDS011;45901;47.600;9.890;2022-12-10T04:59:47;20.83;;;13.13;;
60030;SDS011;45901;47.600;9.890;2022-12-10T05:02:14;19.57;;;12.83;;
60030;SDS011;45901;47.600;9.890;2022-12-10T05:04:42;18.97;;;12.10;;
60030;SDS011;45901;47.600;9.890;2022-12-10T05:07:11;20.70;;;13.63;;
60030;SDS011;45901;47.600;9.890;2022-12-10T05:09:38;21.50;;;12.93;;
60030;SDS011;45901;47.600;9.890;2022-12-10T05:12:07;21.17;;;13.40;;
60030;SDS011;45901;47.600;9.890;2022-12-10T05:14:34;22.47;;;13.60;;
60030;SDS011;45901;47.600;9.890;2022-12-10T05:17:01;20.27;;;12.90;;
60030;SDS011;45901;47.600;9.890;2022-12-10T05:19:28;19.47;;;12.50;;
60030;SDS011;45901;47.600;9.890;2022-12-10T05:21:56;20.80;;;13.13;;
60030;SDS011;45901;47.600;9.890;2022-12-10T05:24:40;19.63;;;12.63;;
60030;SDS011;45901;47.600;9.890;2022-12-10T05:27:09;18.60;;;12.43;;
60030;SDS011;45901;47.600;9.890;2022-12-10T05:29:36;20.27;;;13.50;;
60030;SDS011;45901;47.600;9.890;2022-12-10T05:32:04;20.77;;;13.40;;
60030;SDS011;45901;47.600;9.890;2022-12-10T05:34:31;20.87;;;13.30;;
60030;SDS011;45901;47.600;9.890;2022-12-10T05:36:58;20.63;;;13.10;;
60030;SDS011;45901;47.600;9.890;2022-12-10T05:39:26;18.20;;;12.00;;
60030;SDS011;45901;47.600;9.890;2022-12-10T05:41:53;19.37;;;12.73;;
60030;SDS011;45901;47.600;9.890;2022-12-10T05:44:21;19.43;;;12.33;;
60030;SDS011;45901;47.600;9.890;2022-12-10T05:46:49;18.23;;;11.63;;
60030;SDS011;45901;47.600;9.890;2022-12-10T05:49:18;19.43;;;11.63;;
60030;SDS011;45901;47.600;9.890;2022-12-10T05:51:45;19.73;;;12.50;;
60030;SDS011;45901;47.600;9.890;2022-12-10T05:54:12;19.00;;;12.17;;
60030;SDS011;45901;47.600;9.890;2022-12-10T05:56:40;22.53;;;13.90;;
60030;SDS011;45901;47.600;9.890;2022-12-10T05:59:07;21.27;;;12.73;;
60030;SDS011;45901;47.600;9.890;2022-12-10T06:01:36;18.33;;;11.33;;
60030;SDS011;45901;47.600;9.890;2022-12-10T06:04:04;18.13;;;12.33;;
60030;SDS011;45901;47.600;9.890;2022-12-10T06:06:41;19.57;;;12.73;;
60030;SDS011;45901;47.600;9.890;2022-12-10T06:09:10;19.53;;;12.67;;
60030;SDS011;45901;47.600;9.890;2022-12-10T06:11:39;30.87;;;18.83;;
60030;SDS011;45901;47.600;9.890;2022-12-10T06:14:08;29.60;;;18.37;;
60030;SDS011;45901;47.600;9.890;2022-12-10T06:16:38;25.80;;;15.20;;
60030;SDS011;45901;47.600;9.890;2022-12-10T06:19:06;24.20;;;15.50;;
60030;SDS011;45901;47.600;9.890;2022-12-10T06:21:34;23.90;;;16.27;;
60030;SDS011;45901;47.600;9.890;2022-12-10T06:24:02;26.00;;;15.83;;
60030;SDS011;45901;47.600;9.890;2022-12-10T06:26:29;23.30;;;15.70;;
60030;SDS011;45901;47.600;9.890;2022-12-10T06:28:56;26.63;;;18.13;;
60030;SDS011;45901;47.600;9.890;2022-12-10T06:31:25;24.90;;;16.50;;
60030;SDS011;45901;47.600;9.890;2022-12-10T06:33:53;26.43;;;16.57;;
60030;SDS011;45901;47.600;9.890;2022-12-10T06:36:21;26.87;;;15.90;;
60030;SDS011;45901;47.600;9.890;2022-12-10T06:38:48;24.10;;;14.50;;
60030;SDS011;45901;47.600;9.890;2022-12-10T06:41:16;23.17;;;14.73;;
60030;SDS011;45901;47.600;9.890;2022-12-10T06:43:46;25.50;;;14.97;;
60030;SDS011;45901;47.600;9.890;2022-12-10T06:46:15;26.57;;;15.47;;
60030;SDS011;45901;47.600;9.890;2022-12-10T06:48:45;28.27;;;16.90;;
60030;SDS011;45901;47.600;9.890;2022-12-10T06:51:14;26.47;;;16.33;;
60030;SDS011;45901;47.600;9.890;2022-12-10T06:53:43;27.80;;;16.70;;
60030;SDS011;45901;47.600;9.890;2022-12-10T06:56:12;25.70;;;15.77;;
60030;SDS011;45901;47.600;9.890;2022-12-10T06:58:41;25.53;;;15.03;;
60030;SDS011;45901;47.600;9.890;2022-12-10T07:01:10;29.73;;;17.17;;
60030;SDS011;45901;47.600;9.890;2022-12-10T07:03:40;24.80;;;15.50;;
60030;SDS011;45901;47.600;9.890;2022-12-10T07:06:11;29.30;;;17.60;;
60030;SDS011;45901;47.600;9.890;2022-12-10T07:08:41;30.60;;;17.63;;
60030;SDS011;45901;47.600;9.890;2022-12-10T07:11:10;29.63;;;16.87;;
60030;SDS011;45901;47.600;9.890;2022-12-10T07:13:40;28.40;;;16.67;;
60030;SDS011;45901;47.600;9.890;2022-12-10T07:16:11;28.37;;;16.70;;
60030;SDS011;45901;47.600;9.890;2022-12-10T07:18:40;27.67;;;15.97;;
60030;SDS011;45901;47.600;9.890;2022-12-10T07:21:14;32.10;;;18.03;;
60030;SDS011;45901;47.600;9.890;2022-12-10T07:23:44;30.17;;;16.47;;
60030;SDS011;45901;47.600;9.890;2022-12-10T07:26:12;30.73;;;18.33;;
60030;SDS011;45901;47.600;9.890;2022-12-10T07:28:39;34.20;;;17.97;;
60030;SDS011;45901;47.600;9.890;2022-12-10T07:31:07;28.97;;;17.17;;
60030;SDS011;45901;47.600;9.890;2022-12-10T07:33:36;31.03;;;18.07;;
60030;SDS011;45901;47.600;9.890;2022-12-10T07:36:04;32.43;;;18.67;;
60030;SDS011;45901;47.600;9.890;2022-12-10T07:38:33;32.67;;;19.13;;
60030;SDS011;45901;47.600;9.890;2022-12-10T07:41:03;30.50;;;17.33;;
60030;SDS011;45901;47.600;9.890;2022-12-10T07:43:33;30.37;;;16.93;;
60030;SDS011;45901;47.600;9.890;2022-12-10T07:46:05;29.37;;;15.83;;
60030;SDS011;45901;47.600;9.890;2022-12-10T07:48:34;28.07;;;16.73;;
60030;SDS011;45901;47.600;9.890;2022-12-10T07:51:04;32.83;;;17.70;;
60030;SDS011;45901;47.600;9.890;2022-12-10T07:53:31;28.23;;;17.30;;
60030;SDS011;45901;47.600;9.890;2022-12-10T07:55:59;32.17;;;18.03;;
60030;SDS011;45901;47.600;9.890;2022-12-10T07:58:28;29.33;;;16.97;;
60030;SDS011;45901;47.600;9.890;2022-12-10T08:00:56;30.33;;;17.87;;
60030;SDS011;45901;47.600;9.890;2022-12-10T08:03:23;29.60;;;17.93;;
60030;SDS011;45901;47.600;9.890;2022-12-10T08:06:00;31.03;;;16.97;;
60030;SDS011;45901;47.600;9.890;2022-12-10T08:08:28;26.87;;;16.00;;
60030;SDS011;45901;47.600;9.890;2022-12-10T08:10:57;29.87;;;16.47;;
60030;SDS011;45901;47.600;9.890;2022-12-10T08:13:30;26.70;;;15.57;;
60030;SDS011;45901;47.600;9.890;2022-12-10T08:16:00;28.13;;;15.40;;
60030;SDS011;45901;47.600;9.890;2022-12-10T08:18:28;27.93;;;16.97;;
60030;SDS011;45901;47.600;9.890;2022-12-10T08:20:56;29.43;;;16.13;;
60030;SDS011;45901;47.600;9.890;2022-12-10T08:23:24;27.03;;;16.10;;
60030;SDS011;45901;47.600;9.890;2022-12-10T08:26:01;26.90;;;16.37;;
60030;SDS011;45901;47.600;9.890;2022-12-10T08:28:32;26.30;;;16.07;;
60030;SDS011;45901;47.600;9.890;2022-12-10T08:31:00;26.67;;;14.83;;
60030;SDS011;45901;47.600;9.890;2022-12-10T08:33:28;25.37;;;15.20;;
60030;SDS011;45901;47.600;9.890;2022-12-10T08:35:56;26.93;;;15.87;;
60030;SDS011;45901;47.600;9.890;2022-12-10T08:38:24;27.23;;;16.00;;
60030;SDS011;45901;47.600;9.890;2022-12-10T08:40:52;27.23;;;16.90;;
60030;SDS011;45901;47.600;9.890;2022-12-10T08:43:19;23.80;;;14.77;;
60030;SDS011;45901;47.600;9.890;2022-12-10T08:45:48;28.90;;;16.67;;
60030;SDS011;45901;47.600;9.890;2022-12-10T08:48:16;28.03;;;16.73;;
60030;SDS011;45901;47.600;9.890;2022-12-10T08:50:43;26.90;;;16.17;;
60030;SDS011;45901;47.600;9.890;2022-12-10T08:53:12;25.60;;;16.03;;
60030;SDS011;45901;47.600;9.890;2022-12-10T08:55:39;26.67;;;16.10;;
60030;SDS011;45901;47.600;9.890;2022-12-10T08:58:07;26.60;;;16.67;;
60030;SDS011;45901;47.600;9.890;2022-12-10T09:00:35;28.80;;;17.30;;
60030;SDS011;45901;47.600;9.890;2022-12-10T09:03:04;27.60;;;16.57;;
60030;SDS011;45901;47.600;9.890;2022-12-10T09:05:31;27.30;;;15.50;;
60030;SDS011;45901;47.600;9.890;2022-12-10T09:08:01;27.10;;;16.23;;
60030;SDS011;45901;47.600;9.890;2022-12-10T09:10:28;25.90;;;15.57;;
60030;SDS011;45901;47.600;9.890;2022-12-10T09:12:56;32.43;;;17.60;;
60030;SDS011;45901;47.600;9.890;2022-12-10T09:15:23;26.90;;;16.43;;
60030;SDS011;45901;47.600;9.890;2022-12-10T09:18:08;27.13;;;16.40;;
60030;SDS011;45901;47.600;9.890;2022-12-10T09:20:36;25.47;;;16.60;;
60030;SDS011;45901;47.600;9.890;2022-12-10T09:23:03;29.60;;;17.73;;
60030;SDS011;45901;47.600;9.890;2022-12-10T09:25:31;27.80;;;16.77;;
60030;SDS011;45901;47.600;9.890;2022-12-10T09:27:58;25.13;;;14.50;;
60030;SDS011;45901;47.600;9.890;2022-12-10T09:30:27;28.70;;;16.43;;
60030;SDS011;45901;47.600;9.890;2022-12-10T09:32:55;26.07;;;16.50;;
60030;SDS011;45901;47.600;9.890;2022-12-10T09:35:24;25.37;;;15.33;;
60030;SDS011;45901;47.600;9.890;2022-12-10T09:37:52;25.10;;;15.87;;
60030;SDS011;45901;47.600;9.890;2022-12-10T09:40:21;25.40;;;15.80;;
60030;SDS011;45901;47.600;9.890;2022-12-10T09:43:00;27.17;;;16.83;;
60030;SDS011;45901;47.600;9.890;2022-12-10T09:45:38;27.10;;;16.20;;
60030;SDS011;45901;47.600;9.890;2022-12-10T09:48:15;29.67;;;18.03;;
60030;SDS011;45901;47.600;9.890;2022-12-10T09:50:50;27.80;;;17.30;;
60030;SDS011;45901;47.600;9.890;2022-12-10T09:53:23;29.60;;;17.20;;
60030;SDS011;45901;47.600;9.890;2022-12-10T09:55:54;30.97;;;18.73;;
60030;SDS011;45901;47.600;9.890;2022-12-10T09:58:22;30.70;;;17.97;;
60030;SDS011;45901;47.600;9.890;2022-12-10T10:00:54;33.73;;;18.77;;
60030;SDS011;45901;47.600;9.890;2022-12-10T10:03:25;29.03;;;17.60;;
60030;SDS011;45901;47.600;9.890;2022-12-10T10:05:56;32.90;;;17.80;;
60030;SDS011;45901;47.600;9.890;2022-12-10T10:08:26;32.13;;;18.10;;
60030;SDS011;45901;47.600;9.890;2022-12-10T10:10:58;33.07;;;19.33;;
60030;SDS011;45901;47.600;9.890;2022-12-10T10:13:49;30.47;;;18.33;;
60030;SDS011;45901;47.600;9.890;2022-12-10T10:16:42;36.77;;;18.30;;
60030;SDS011;45901;47.600;9.890;2022-12-10T10:19:14;31.07;;;17.67;;
60030;SDS011;45901;47.600;9.890;2022-12-10T10:21:46;30.50;;;17.30;;
60030;SDS011;45901;47.600;9.890;2022-12-10T10:24:16;32.37;;;18.53;;
60030;SDS011;45901;47.600;9.890;2022-12-10T10:26:46;28.63;;;15.90;;
60030;SDS011;45901;47.600;9.890;2022-12-10T10:29:16;30.27;;;17.23;;
60030;SDS011;45901;47.600;9.890;2022-12-10T10:31:46;28.43;;;16.23;;
60030;SDS011;45901;47.600;9.890;2022-12-10T10:34:15;28.73;;;15.57;;
60030;SDS011;45901;47.600;9.890;2022-12-10T10:36:48;27.67;;;16.33;;
60030;SDS011;45901;47.600;9.890;2022-12-10T10:39:26;26.50;;;14.93;;
60030;SDS011;45901;47.600;9.890;2022-12-10T10:41:56;26.87;;;15.20;;
60030;SDS011;45901;47.600;9.890;2022-12-10T10:44:26;26.17;;;15.03;;
60030;SDS011;45901;47.600;9.890;2022-12-10T10:47:01;30.53;;;16.80;;
60030;SDS011;45901;47.600;9.890;2022-12-10T10:49:29;28.77;;;15.90;;
60030;SDS011;45901;47.600;9.890;2022-12-10T10:52:00;25.63;;;14.53;;
60030;SDS011;45901;47.600;9.890;2022-12-10T10:54:38;24.20;;;15.00;;
60030;SDS011;45901;47.600;9.890;2022-12-10T10:57:10;28.50;;;15.27;;
60030;SDS011;45901;47.600;9.890;2022-12-10T10:59:42;41.50;;;19.67;;
60030;SDS011;45901;47.600;9.890;2022-12-10T11:02:17;28.97;;;15.63;;
60030;SDS011;45901;47.600;9.890;2022-12-10T11:04:49;22.70;;;13.50;;
60030;SDS011;45901;47.600;9.890;2022-12-10T11:07:21;23.27;;;13.57;;
60030;SDS011;45901;47.600;9.890;2022-12-10T11:09:53;25.10;;;15.00;;
60030;SDS011;45901;47.600;9.890;2022-12-10T11:12:28;25.27;;;14.33;;
60030;SDS011;45901;47.600;9.890;2022-12-10T11:15:02;28.27;;;15.93;;
60030;SDS011;45901;47.600;9.890;2022-12-10T11:17:55;29.63;;;16.90;;
60030;SDS011;45901;47.600;9.890;2022-12-10T11:20:24;31.43;;;17.40;;
60030;SDS011;45901;47.600;9.890;2022-12-10T11:22:56;28.23;;;17.37;;
60030;SDS011;45901;47.600;9.890;2022-12-10T11:25:29;28.67;;;17.43;;
60030;SDS011;45901;47.600;9.890;2022-12-10T11:28:12;31.23;;;18.40;;
60030;SDS011;45901;47.600;9.890;2022-12-10T11:31:02;27.90;;;16.63;;
60030;SDS011;45901;47.600;9.890;2022-12-10T11:33:52;27.80;;;17.33;;
60030;SDS011;45901;47.600;9.890;2022-12-10T11:36:29;30.70;;;17.77;;
60030;SDS011;45901;47.600;9.890;2022-12-10T11:39:10;30.33;;;18.23;;
60030;SDS011;45901;47.600;9.890;2022-12-10T11:41:53;31.07;;;18.07;;
60030;SDS011;45901;47.600;9.890;2022-12-10T11:44:31;30.17;;;18.87;;
60030;SDS011;45901;47.600;9.890;2022-12-10T11:47:14;29.23;;;17.67;;
60030;SDS011;45901;47.600;9.890;2022-12-10T11:50:24;30.03;;;18.03;;
60030;SDS011;45901;47.600;9.890;2022-12-10T11:53:10;29.43;;;17.33;;
60030;SDS011;45901;47.600;9.890;2022-12-10T11:55:56;27.77;;;16.90;;
60030;SDS011;45901;47.600;9.890;2022-12-10T11:59:09;31.47;;;18.10;;
60030;SDS011;45901;47.600;9.890;2022-12-10T12:02:30;28.13;;;17.93;;
60030;SDS011;45901;47.600;9.890;2022-12-10T12:05:27;30.83;;;17.87;;
60030;SDS011;45901;47.600;9.890;2022-12-10T12:08:13;26.80;;;17.13;;
60030;SDS011;45901;47.600;9.890;2022-12-10T12:11:00;27.43;;;16.37;;
60030;SDS011;45901;47.600;9.890;2022-12-10T12:13:41;31.97;;;17.97;;
60030;SDS011;45901;47.600;9.890;2022-12-10T12:16:20;31.57;;;18.87;;
60030;SDS011;45901;47.600;9.890;2022-12-10T12:18:55;30.00;;;19.37;;
60030;SDS011;45901;47.600;9.890;2022-12-10T12:21:27;29.20;;;18.77;;
60030;SDS011;45901;47.600;9.890;2022-12-10T12:23:56;27.27;;;18.37;;
60030;SDS011;45901;47.600;9.890;2022-12-10T12:26:32;31.60;;;19.33;;
60030;SDS011;45901;47.600;9.890;2022-12-10T12:29:09;28.43;;;17.93;;
60030;SDS011;45901;47.600;9.890;2022-12-10T12:31:45;30.30;;;19.70;;
60030;SDS011;45901;47.600;9.890;2022-12-10T12:34:17;31.57;;;20.13;;
60030;SDS011;45901;47.600;9.890;2022-12-10T12:36:51;31.43;;;19.90;;
60030;SDS011;45901;47.600;9.890;2022-12-10T12:39:20;35.83;;;22.93;;
60030;SDS011;45901;47.600;9.890;2022-12-10T12:42:01;33.30;;;21.00;;
60030;SDS011;45901;47.600;9.890;2022-12-10T12:44:41;33.03;;;19.43;;
60030;SDS011;45901;47.600;9.890;2022-12-10T12:47:26;29.10;;;18.73;;
60030;SDS011;45901;47.600;9.890;2022-12-10T12:50:04;28.70;;;17.43;;
60030;SDS011;45901;47.600;9.890;2022-12-10T12:52:47;32.23;;;19.10;;
60030;SDS011;45901;47.600;9.890;2022-12-10T12:55:20;28.60;;;18.27;;
60030;SDS011;45901;47.600;9.890;2022-12-10T12:58:11;25.53;;;17.47;;
60030;SDS011;45901;47.600;9.890;2022-12-10T13:00:58;30.83;;;17.83;;
60030;SDS011;45901;47.600;9.890;2022-12-10T13:03:35;27.93;;;16.97;;
60030;SDS011;45901;47.600;9.890;2022-12-10T13:06:17;29.37;;;18.50;;
60030;SDS011;45901;47.600;9.890;2022-12-10T13:08:49;27.30;;;16.87;;
60030;SDS011;45901;47.600;9.890;2022-12-10T13:11:33;23.17;;;15.80;;
60030;SDS011;45901;47.600;9.890;2022-12-10T13:14:14;22.00;;;14.87;;
60030;SDS011;45901;47.600;9.890;2022-12-10T13:17:00;23.27;;;14.33;;
60030;SDS011;45901;47.600;9.890;2022-12-10T13:19:35;21.57;;;13.30;;
60030;SDS011;45901;47.600;9.890;2022-12-10T13:22:04;21.30;;;14.43;;
60030;SDS011;45901;47.600;9.890;2022-12-10T13:24:43;23.77;;;14.70;;
60030;SDS011;45901;47.600;9.890;2022-12-10T13:27:41;23.17;;;14.00;;
60030;SDS011;45901;47.600;9.890;2022-12-10T13:30:34;23.87;;;14.70;;
60030;SDS011;45901;47.600;9.890;2022-12-10T13:33:14;20.97;;;13.33;;
60030;SDS011;45901;47.600;9.890;2022-12-10T13:35:55;22.97;;;13.17;;
60030;SDS011;45901;47.600;9.890;2022-12-10T13:38:26;18.40;;;12.57;;
60030;SDS011;45901;47.600;9.890;2022-12-10T13:40:58;17.93;;;11.97;;
60030;SDS011;45901;47.600;9.890;2022-12-10T13:43:54;18.47;;;11.50;;
60030;SDS011;45901;47.600;9.890;2022-12-10T13:46:56;17.77;;;11.90;;
60030;SDS011;45901;47.600;9.890;2022-12-10T13:49:27;20.90;;;11.40;;
60030;SDS011;45901;47.600;9.890;2022-12-10T13:52:00;19.53;;;12.47;;
60030;SDS011;45901;47.600;9.890;2022-12-10T15:45:54;13.47;;;8.50;;
60030;SDS011;45901;47.600;9.890;2022-12-10T15:49:17;14.33;;;8.80;;
60030;SDS011;45901;47.600;9.890;2022-12-10T15:53:02;15.37;;;9.17;;
60030;SDS011;45901;47.600;9.890;2022-12-10T16:03:25;19.03;;;10.77;;
60030;SDS011;45901;47.600;9.890;2022-12-10T16:05:55;17.03;;;10.83;;
60030;SDS011;45901;47.600;9.890;2022-12-10T16:08:24;19.87;;;11.13;;
60030;SDS011;45901;47.600;9.890;2022-12-10T16:10:55;21.57;;;11.50;;
60030;SDS011;45901;47.600;9.890;2022-12-10T16:13:32;18.30;;;11.20;;
60030;SDS011;45901;47.600;9.890;2022-12-10T16:16:18;21.60;;;12.43;;
60030;SDS011;45901;47.600;9.890;2022-12-10T16:18:47;27.00;;;12.93;;
60030;SDS011;45901;47.600;9.890;2022-12-10T16:21:14;24.10;;;14.70;;
60030;SDS011;45901;47.600;9.890;2022-12-10T16:23:42;21.57;;;13.07;;
60030;SDS011;45901;47.600;9.890;2022-12-10T16:26:12;18.03;;;11.60;;
60030;SDS011;45901;47.600;9.890;2022-12-10T16:28:44;16.37;;;10.70;;
60030;SDS011;45901;47.600;9.890;2022-12-10T16:37:41;15.33;;;9.17;;
60030;SDS011;45901;47.600;9.890;2022-12-10T16:40:13;16.00;;;8.70;;
60030;SDS011;45901;47.600;9.890;2022-12-10T16:42:43;14.07;;;8.57;;
60030;SDS011;45901;47.600;9.890;2022-12-10T16:45:12;12.60;;;7.77;;
60030;SDS011;45901;47.600;9.890;2022-12-10T16:47:42;13.97;;;7.97;;
60030;SDS011;45901;47.600;9.890;2022-12-10T16:56:54;19.30;;;9.80;;
60030;SDS011;45901;47.600;9.890;2022-12-10T16:59:38;18.73;;;9.53;;
60030;SDS011;45901;47.600;9.890;2022-12-10T17:03:03;14.00;;;7.63;;
60030;SDS011;45901;47.600;9.890;2022-12-10T17:05:50;12.37;;;6.87;;
60030;SDS011;45901;47.600;9.890;2022-12-10T17:08:42;8.70;;;5.23;;
60030;SDS011;45901;47.600;9.890;2022-12-10T17:14:38;12.57;;;6.43;;
60030;SDS011;45901;47.600;9.890;2022-12-10T17:17:12;11.20;;;7.23;;
60030;SDS011;45901;47.600;9.890;2022-12-10T17:19:41;11.53;;;6.37;;